sensor_id;sensor_type;location;lat;lon;timestamp;P1;durP1;ratioP1;P2;durP2;ratioP2
19547;SDS011;9919;58.014;11.826;2022-12-29T00:01:47;0.32;;;0.20;;
19547;SDS011;9919;58.014;11.826;2022-12-29T00:03:49;0.28;;;0.28;;
19547;SDS011;9919;58.014;11.826;2022-12-29T00:05:54;0.20;;;0.20;;
19547;SDS011;9919;58.014;11.826;2022-12-29T00:07:57;0.20;;;0.20;;
19547;SDS011;9919;58.014;11.826;2022-12-29T00:09:58;0.40;;;0.40;;
19547;SDS011;9919;58.014;11.826;2022-12-29T00:12:00;0.85;;;0.40;;
19547;SDS011;9919;58.014;11.826;2022-12-29T00:14:02;0.22;;;0.22;;
19547;SDS011;9919;58.014;11.826;2022-12-29T00:16:43;0.35;;;0.35;;
19547;SDS011;9919;58.014;11.826;2022-12-29T00:18:45;0.35;;;0.35;;
19547;SDS011;9919;58.014;11.826;2022-12-29T00:20:46;0.30;;;0.30;;
19547;SDS011;9919;58.014;11.826;2022-12-29T00:23:08;1.95;;;0.30;;
19547;SDS011;9919;58.014;11.826;2022-12-29T00:25:27;0.30;;;0.30;;
19547;SDS011;9919;58.014;11.826;2022-12-29T00:27:47;0.38;;;0.30;;
19547;SDS011;9919;58.014;11.826;2022-12-29T00:30:18;0.38;;;0.38;;
19547;SDS011;9919;58.014;11.826;2022-12-29T00:32:39;0.32;;;0.32;;
19547;SDS011;9919;58.014;11.826;2022-12-29T00:35:00;0.30;;;0.30;;
19547;SDS011;9919;58.014;11.826;2022-12-29T00:37:09;0.40;;;0.40;;
19547;SDS011;9919;58.014;11.826;2022-12-29T00:39:14;0.20;;;0.20;;
19547;SDS011;9919;58.014;11.826;2022-12-29T00:41:35;0.40;;;0.40;;
19547;SDS011;9919;58.014;11.826;2022-12-29T00:43:55;0.20;;;0.20;;
19547;SDS011;9919;58.014;11.826;2022-12-29T00:46:07;0.30;;;0.30;;
19547;SDS011;9919;58.014;11.826;2022-12-29T00:48:08;0.30;;;0.30;;
19547;SDS011;9919;58.014;11.826;2022-12-29T00:50:10;0.17;;;0.17;;
19547;SDS011;9919;58.014;11.826;2022-12-29T00:52:12;0.43;;;0.40;;
19547;SDS011;9919;58.014;11.826;2022-12-29T00:54:14;0.35;;;0.30;;
19547;SDS011;9919;58.014;11.826;2022-12-29T00:56:17;0.28;;;0.28;;
19547;SDS011;9919;58.014;11.826;2022-12-29T00:58:18;0.25;;;0.25;;
19547;SDS011;9919;58.014;11.826;2022-12-29T01:00:19;0.25;;;0.25;;
19547;SDS011;9919;58.014;11.826;2022-12-29T01:02:21;1.02;;;0.32;;
19547;SDS011;9919;58.014;11.826;2022-12-29T01:04:23;2.53;;;0.40;;
19547;SDS011;9919;58.014;11.826;2022-12-29T01:06:25;0.32;;;0.32;;
19547;SDS011;9919;58.014;11.826;2022-12-29T01:08:27;0.40;;;0.40;;
19547;SDS011;9919;58.014;11.826;2022-12-29T01:10:29;0.30;;;0.30;;
19547;SDS011;9919;58.014;11.826;2022-12-29T01:12:33;0.43;;;0.40;;
19547;SDS011;9919;58.014;11.826;2022-12-29T01:14:40;0.30;;;0.30;;
19547;SDS011;9919;58.014;11.826;2022-12-29T01:16:41;0.40;;;0.40;;
19547;SDS011;9919;58.014;11.826;2022-12-29T01:18:44;0.47;;;0.40;;
19547;SDS011;9919;58.014;11.826;2022-12-29T01:20:47;0.38;;;0.38;;
19547;SDS011;9919;58.014;11.826;2022-12-29T01:22:48;0.28;;;0.28;;
19547;SDS011;9919;58.014;11.826;2022-12-29T01:24:50;0.30;;;0.30;;
19547;SDS011;9919;58.014;11.826;2022-12-29T01:26:51;0.30;;;0.30;;
19547;SDS011;9919;58.014;11.826;2022-12-29T01:28:54;0.55;;;0.30;;
19547;SDS011;9919;58.014;11.826;2022-12-29T01:30:59;0.17;;;0.17;;
19547;SDS011;9919;58.014;11.826;2022-12-29T01:33:01;0.20;;;0.20;;
19547;SDS011;9919;58.014;11.826;2022-12-29T01:35:03;0.10;;;0.10;;
19547;SDS011;9919;58.014;11.826;2022-12-29T01:37:04;0.43;;;0.30;;
19547;SDS011;9919;58.014;11.826;2022-12-29T01:39:06;0.32;;;0.25;;
19547;SDS011;9919;58.014;11.826;2022-12-29T01:41:10;0.30;;;0.30;;
19547;SDS011;9919;58.014;11.826;2022-12-29T01:43:13;0.30;;;0.30;;
19547;SDS011;9919;58.014;11.826;2022-12-29T01:45:16;0.35;;;0.35;;
19547;SDS011;9919;58.014;11.826;2022-12-29T01:49:39;0.20;;;0.20;;
19547;SDS011;9919;58.014;11.826;2022-12-29T01:51:51;0.28;;;0.28;;
19547;SDS011;9919;58.014;11.826;2022-12-29T01:53:54;0.13;;;0.13;;
19547;SDS011;9919;58.014;11.826;2022-12-29T01:55:58;0.52;;;0.43;;
19547;SDS011;9919;58.014;11.826;2022-12-29T01:58:04;0.28;;;0.28;;
19547;SDS011;9919;58.014;11.826;2022-12-29T02:00:11;0.43;;;0.20;;
19547;SDS011;9919;58.014;11.826;2022-12-29T02:02:13;0.15;;;0.15;;
19547;SDS011;9919;58.014;11.826;2022-12-29T02:04:16;0.38;;;0.38;;
19547;SDS011;9919;58.014;11.826;2022-12-29T02:08:26;0.38;;;0.38;;
19547;SDS011;9919;58.014;11.826;2022-12-29T02:10:29;0.30;;;0.30;;
19547;SDS011;9919;58.014;11.826;2022-12-29T02:12:32;1.30;;;0.32;;
19547;SDS011;9919;58.014;11.826;2022-12-29T02:14:34;1.27;;;0.38;;
19547;SDS011;9919;58.014;11.826;2022-12-29T02:32:06;0.15;;;0.15;;
19547;SDS011;9919;58.014;11.826;2022-12-29T02:35:33;0.20;;;0.20;;
19547;SDS011;9919;58.014;11.826;2022-12-29T02:52:38;0.15;;;0.15;;
19547;SDS011;9919;58.014;11.826;2022-12-29T02:54:48;0.28;;;0.22;;
19547;SDS011;9919;58.014;11.826;2022-12-29T02:56:52;0.20;;;0.20;;
19547;SDS011;9919;58.014;11.826;2022-12-29T02:58:54;0.10;;;0.10;;
19547;SDS011;9919;58.014;11.826;2022-12-29T03:12:49;0.20;;;0.20;;
19547;SDS011;9919;58.014;11.826;2022-12-29T03:15:16;0.30;;;0.30;;
19547;SDS011;9919;58.014;11.826;2022-12-29T03:17:58;0.22;;;0.22;;
19547;SDS011;9919;58.014;11.826;2022-12-29T03:20:06;0.40;;;0.40;;
19547;SDS011;9919;58.014;11.826;2022-12-29T03:22:10;0.30;;;0.30;;
19547;SDS011;9919;58.014;11.826;2022-12-29T03:24:31;0.20;;;0.20;;
19547;SDS011;9919;58.014;11.826;2022-12-29T03:26:38;0.20;;;0.20;;
19547;SDS011;9919;58.014;11.826;2022-12-29T03:28:46;0.40;;;0.22;;
19547;SDS011;9919;58.014;11.826;2022-12-29T03:30:50;0.20;;;0.20;;
19547;SDS011;9919;58.014;11.826;2022-12-29T03:32:54;0.20;;;0.20;;
19547;SDS011;9919;58.014;11.826;2022-12-29T03:35:00;0.43;;;0.20;;
19547;SDS011;9919;58.014;11.826;2022-12-29T03:37:07;0.20;;;0.20;;
19547;SDS011;9919;58.014;11.826;2022-12-29T03:39:12;0.70;;;0.30;;
19547;SDS011;9919;58.014;11.826;2022-12-29T03:41:16;0.20;;;0.20;;
19547;SDS011;9919;58.014;11.826;2022-12-29T03:43:20;0.20;;;0.20;;
19547;SDS011;9919;58.014;11.826;2022-12-29T03:45:22;0.22;;;0.22;;
19547;SDS011;9919;58.014;11.826;2022-12-29T03:47:24;0.40;;;0.40;;
19547;SDS011;9919;58.014;11.826;2022-12-29T03:49:26;0.20;;;0.20;;
19547;SDS011;9919;58.014;11.826;2022-12-29T03:51:28;0.30;;;0.30;;
19547;SDS011;9919;58.014;11.826;2022-12-29T03:53:29;0.20;;;0.20;;
19547;SDS011;9919;58.014;11.826;2022-12-29T03:55:32;0.25;;;0.22;;
19547;SDS011;9919;58.014;11.826;2022-12-29T03:57:33;1.00;;;0.28;;
19547;SDS011;9919;58.014;11.826;2022-12-29T03:59:36;0.20;;;0.20;;
19547;SDS011;9919;58.014;11.826;2022-12-29T04:01:38;0.20;;;0.20;;
19547;SDS011;9919;58.014;11.826;2022-12-29T04:03:40;0.30;;;0.30;;
19547;SDS011;9919;58.014;11.826;2022-12-29T04:05:42;0.13;;;0.13;;
19547;SDS011;9919;58.014;11.826;2022-12-29T04:07:43;0.10;;;0.10;;
19547;SDS011;9919;58.014;11.826;2022-12-29T04:09:46;0.30;;;0.30;;
19547;SDS011;9919;58.014;11.826;2022-12-29T04:11:48;0.10;;;0.10;;
19547;SDS011;9919;58.014;11.826;2022-12-29T04:13:50;0.20;;;0.20;;
19547;SDS011;9919;58.014;11.826;2022-12-29T04:15:52;0.10;;;0.10;;
19547;SDS011;9919;58.014;11.826;2022-12-29T04:17:54;0.10;;;0.10;;
19547;SDS011;9919;58.014;11.826;2022-12-29T04:19:55;0.17;;;0.17;;
19547;SDS011;9919;58.014;11.826;2022-12-29T04:22:16;0.22;;;0.22;;
19547;SDS011;9919;58.014;11.826;2022-12-29T04:24:17;0.20;;;0.20;;
19547;SDS011;9919;58.014;11.826;2022-12-29T04:26:20;0.13;;;0.13;;
19547;SDS011;9919;58.014;11.826;2022-12-29T04:28:22;0.20;;;0.20;;
19547;SDS011;9919;58.014;11.826;2022-12-29T04:30:23;0.20;;;0.20;;
19547;SDS011;9919;58.014;11.826;2022-12-29T04:32:25;0.35;;;0.30;;
19547;SDS011;9919;58.014;11.826;2022-12-29T04:34:27;0.10;;;0.10;;
19547;SDS011;9919;58.014;11.826;2022-12-29T04:36:28;0.20;;;0.15;;
19547;SDS011;9919;58.014;11.826;2022-12-29T04:38:30;0.13;;;0.13;;
19547;SDS011;9919;58.014;11.826;2022-12-29T04:40:32;0.20;;;0.20;;
19547;SDS011;9919;58.014;11.826;2022-12-29T04:42:33;0.52;;;0.30;;
19547;SDS011;9919;58.014;11.826;2022-12-29T04:44:34;1.25;;;0.30;;
19547;SDS011;9919;58.014;11.826;2022-12-29T04:46:36;0.20;;;0.20;;
19547;SDS011;9919;58.014;11.826;2022-12-29T04:48:38;0.10;;;0.10;;
19547;SDS011;9919;58.014;11.826;2022-12-29T04:50:40;0.15;;;0.15;;
19547;SDS011;9919;58.014;11.826;2022-12-29T04:52:42;0.10;;;0.10;;
19547;SDS011;9919;58.014;11.826;2022-12-29T04:54:43;0.20;;;0.20;;
19547;SDS011;9919;58.014;11.826;2022-12-29T04:56:45;1.35;;;0.17;;
19547;SDS011;9919;58.014;11.826;2022-12-29T04:58:48;0.20;;;0.10;;
19547;SDS011;9919;58.014;11.826;2022-12-29T05:00:51;0.30;;;0.30;;
19547;SDS011;9919;58.014;11.826;2022-12-29T05:02:52;0.20;;;0.20;;
19547;SDS011;9919;58.014;11.826;2022-12-29T05:04:54;0.10;;;0.10;;
19547;SDS011;9919;58.014;11.826;2022-12-29T05:06:56;0.75;;;0.20;;
19547;SDS011;9919;58.014;11.826;2022-12-29T05:08:57;0.22;;;0.20;;
19547;SDS011;9919;58.014;11.826;2022-12-29T05:10:59;0.30;;;0.30;;
19547;SDS011;9919;58.014;11.826;2022-12-29T05:13:00;0.20;;;0.20;;
19547;SDS011;9919;58.014;11.826;2022-12-29T05:15:02;0.20;;;0.20;;
19547;SDS011;9919;58.014;11.826;2022-12-29T05:17:04;0.20;;;0.20;;
19547;SDS011;9919;58.014;11.826;2022-12-29T05:19:05;0.20;;;0.20;;
19547;SDS011;9919;58.014;11.826;2022-12-29T05:21:07;0.22;;;0.22;;
19547;SDS011;9919;58.014;11.826;2022-12-29T05:23:09;0.10;;;0.10;;
19547;SDS011;9919;58.014;11.826;2022-12-29T05:25:10;0.25;;;0.25;;
19547;SDS011;9919;58.014;11.826;2022-12-29T05:27:13;0.10;;;0.10;;
19547;SDS011;9919;58.014;11.826;2022-12-29T05:29:14;0.20;;;0.20;;
19547;SDS011;9919;58.014;11.826;2022-12-29T05:31:16;0.10;;;0.10;;
19547;SDS011;9919;58.014;11.826;2022-12-29T05:33:19;0.13;;;0.13;;
19547;SDS011;9919;58.014;11.826;2022-12-29T05:35:20;0.35;;;0.25;;
19547;SDS011;9919;58.014;11.826;2022-12-29T05:37:22;0.28;;;0.28;;
19547;SDS011;9919;58.014;11.826;2022-12-29T05:39:25;3.30;;;0.40;;
19547;SDS011;9919;58.014;11.826;2022-12-29T05:41:27;0.10;;;0.10;;
19547;SDS011;9919;58.014;11.826;2022-12-29T05:43:29;0.22;;;0.22;;
19547;SDS011;9919;58.014;11.826;2022-12-29T05:45:32;5.05;;;0.43;;
19547;SDS011;9919;58.014;11.826;2022-12-29T05:47:33;0.10;;;0.10;;
19547;SDS011;9919;58.014;11.826;2022-12-29T05:49:36;0.30;;;0.30;;
19547;SDS011;9919;58.014;11.826;2022-12-29T05:51:38;0.20;;;0.20;;
19547;SDS011;9919;58.014;11.826;2022-12-29T05:53:40;0.63;;;0.20;;
19547;SDS011;9919;58.014;11.826;2022-12-29T05:55:42;0.10;;;0.10;;
19547;SDS011;9919;58.014;11.826;2022-12-29T05:57:44;0.20;;;0.20;;
19547;SDS011;9919;58.014;11.826;2022-12-29T05:59:45;0.30;;;0.20;;
19547;SDS011;9919;58.014;11.826;2022-12-29T06:01:47;0.13;;;0.13;;
19547;SDS011;9919;58.014;11.826;2022-12-29T06:03:49;0.73;;;0.38;;
19547;SDS011;9919;58.014;11.826;2022-12-29T06:05:50;2.30;;;0.70;;
19547;SDS011;9919;58.014;11.826;2022-12-29T06:07:52;0.40;;;0.30;;
19547;SDS011;9919;58.014;11.826;2022-12-29T06:09:55;0.20;;;0.20;;
19547;SDS011;9919;58.014;11.826;2022-12-29T06:11:57;1.25;;;0.40;;
19547;SDS011;9919;58.014;11.826;2022-12-29T06:13:59;0.28;;;0.28;;
19547;SDS011;9919;58.014;11.826;2022-12-29T06:16:00;0.25;;;0.25;;
19547;SDS011;9919;58.014;11.826;2022-12-29T06:18:03;0.25;;;0.20;;
19547;SDS011;9919;58.014;11.826;2022-12-29T06:20:05;0.20;;;0.20;;
19547;SDS011;9919;58.014;11.826;2022-12-29T06:22:08;0.30;;;0.30;;
19547;SDS011;9919;58.014;11.826;2022-12-29T06:24:12;3.17;;;0.28;;
19547;SDS011;9919;58.014;11.826;2022-12-29T06:26:13;0.38;;;0.38;;
19547;SDS011;9919;58.014;11.826;2022-12-29T06:28:14;0.38;;;0.32;;
19547;SDS011;9919;58.014;11.826;2022-12-29T06:30:17;0.60;;;0.30;;
19547;SDS011;9919;58.014;11.826;2022-12-29T06:32:18;0.77;;;0.32;;
19547;SDS011;9919;58.014;11.826;2022-12-29T06:34:20;0.20;;;0.20;;
19547;SDS011;9919;58.014;11.826;2022-12-29T06:36:21;0.45;;;0.30;;
19547;SDS011;9919;58.014;11.826;2022-12-29T06:38:22;0.38;;;0.20;;
19547;SDS011;9919;58.014;11.826;2022-12-29T06:40:24;0.30;;;0.30;;
19547;SDS011;9919;58.014;11.826;2022-12-29T06:42:25;0.28;;;0.28;;
19547;SDS011;9919;58.014;11.826;2022-12-29T06:44:26;0.75;;;0.20;;
19547;SDS011;9919;58.014;11.826;2022-12-29T06:46:28;1.25;;;0.15;;
19547;SDS011;9919;58.014;11.826;2022-12-29T06:48:29;0.30;;;0.30;;
19547;SDS011;9919;58.014;11.826;2022-12-29T06:50:30;0.30;;;0.30;;
19547;SDS011;9919;58.014;11.826;2022-12-29T06:52:32;0.20;;;0.20;;
19547;SDS011;9919;58.014;11.826;2022-12-29T06:54:33;1.75;;;0.50;;
19547;SDS011;9919;58.014;11.826;2022-12-29T06:56:34;0.20;;;0.20;;
19547;SDS011;9919;58.014;11.826;2022-12-29T06:58:36;0.30;;;0.30;;
19547;SDS011;9919;58.014;11.826;2022-12-29T07:00:38;0.25;;;0.25;;
19547;SDS011;9919;58.014;11.826;2022-12-29T07:02:39;0.30;;;0.30;;
19547;SDS011;9919;58.014;11.826;2022-12-29T07:04:41;0.35;;;0.35;;
19547;SDS011;9919;58.014;11.826;2022-12-29T07:06:42;0.10;;;0.10;;
19547;SDS011;9919;58.014;11.826;2022-12-29T07:08:43;0.10;;;0.10;;
19547;SDS011;9919;58.014;11.826;2022-12-29T07:10:45;0.32;;;0.30;;
19547;SDS011;9919;58.014;11.826;2022-12-29T07:12:46;0.20;;;0.20;;
19547;SDS011;9919;58.014;11.826;2022-12-29T07:14:48;0.88;;;0.60;;
19547;SDS011;9919;58.014;11.826;2022-12-29T07:16:49;0.28;;;0.28;;
19547;SDS011;9919;58.014;11.826;2022-12-29T07:18:51;0.25;;;0.17;;
19547;SDS011;9919;58.014;11.826;2022-12-29T07:20:53;0.25;;;0.25;;
19547;SDS011;9919;58.014;11.826;2022-12-29T07:22:55;0.20;;;0.20;;
19547;SDS011;9919;58.014;11.826;2022-12-29T07:24:57;1.65;;;0.30;;
19547;SDS011;9919;58.014;11.826;2022-12-29T07:26:58;0.30;;;0.30;;
19547;SDS011;9919;58.014;11.826;2022-12-29T07:29:00;0.22;;;0.22;;
19547;SDS011;9919;58.014;11.826;2022-12-29T07:31:03;0.35;;;0.25;;
19547;SDS011;9919;58.014;11.826;2022-12-29T07:33:05;0.20;;;0.20;;
19547;SDS011;9919;58.014;11.826;2022-12-29T07:35:06;0.40;;;0.30;;
19547;SDS011;9919;58.014;11.826;2022-12-29T07:37:08;0.38;;;0.38;;
19547;SDS011;9919;58.014;11.826;2022-12-29T07:39:09;0.20;;;0.20;;
19547;SDS011;9919;58.014;11.826;2022-12-29T07:41:12;0.25;;;0.10;;
19547;SDS011;9919;58.014;11.826;2022-12-29T07:43:14;0.17;;;0.17;;
19547;SDS011;9919;58.014;11.826;2022-12-29T07:45:15;1.45;;;0.30;;
19547;SDS011;9919;58.014;11.826;2022-12-29T07:47:16;0.20;;;0.20;;
19547;SDS011;9919;58.014;11.826;2022-12-29T07:49:18;1.02;;;0.45;;
19547;SDS011;9919;58.014;11.826;2022-12-29T07:51:21;3.60;;;0.30;;
19547;SDS011;9919;58.014;11.826;2022-12-29T07:53:22;0.30;;;0.30;;
19547;SDS011;9919;58.014;11.826;2022-12-29T07:55:25;1.13;;;0.30;;
19547;SDS011;9919;58.014;11.826;2022-12-29T07:57:27;0.90;;;0.50;;
19547;SDS011;9919;58.014;11.826;2022-12-29T07:59:30;2.97;;;0.40;;
19547;SDS011;9919;58.014;11.826;2022-12-29T08:01:31;0.60;;;0.35;;
19547;SDS011;9919;58.014;11.826;2022-12-29T08:03:33;2.42;;;0.40;;
19547;SDS011;9919;58.014;11.826;2022-12-29T08:05:36;0.20;;;0.20;;
19547;SDS011;9919;58.014;11.826;2022-12-29T08:07:37;1.17;;;0.20;;
19547;SDS011;9919;58.014;11.826;2022-12-29T08:09:39;0.60;;;0.32;;
19547;SDS011;9919;58.014;11.826;2022-12-29T08:11:41;1.90;;;0.60;;
19547;SDS011;9919;58.014;11.826;2022-12-29T08:13:43;0.60;;;0.50;;
19547;SDS011;9919;58.014;11.826;2022-12-29T08:15:45;1.20;;;0.30;;
19547;SDS011;9919;58.014;11.826;2022-12-29T08:17:46;0.60;;;0.52;;
19547;SDS011;9919;58.014;11.826;2022-12-29T08:19:47;1.85;;;0.47;;
19547;SDS011;9919;58.014;11.826;2022-12-29T08:21:49;0.20;;;0.20;;
19547;SDS011;9919;58.014;11.826;2022-12-29T08:23:51;0.40;;;0.32;;
19547;SDS011;9919;58.014;11.826;2022-12-29T08:26:02;0.50;;;0.50;;
19547;SDS011;9919;58.014;11.826;2022-12-29T08:28:04;1.48;;;1.10;;
19547;SDS011;9919;58.014;11.826;2022-12-29T08:30:06;1.77;;;1.17;;
19547;SDS011;9919;58.014;11.826;2022-12-29T08:32:08;7.03;;;1.80;;
19547;SDS011;9919;58.014;11.826;2022-12-29T08:34:09;6.97;;;2.30;;
19547;SDS011;9919;58.014;11.826;2022-12-29T08:36:11;6.28;;;2.88;;
19547;SDS011;9919;58.014;11.826;2022-12-29T08:38:12;7.05;;;3.70;;
19547;SDS011;9919;58.014;11.826;2022-12-29T08:40:13;6.40;;;3.83;;
19547;SDS011;9919;58.014;11.826;2022-12-29T08:42:15;5.65;;;3.13;;
19547;SDS011;9919;58.014;11.826;2022-12-29T08:44:16;8.02;;;3.22;;
19547;SDS011;9919;58.014;11.826;2022-12-29T08:46:19;7.43;;;2.50;;
19547;SDS011;9919;58.014;11.826;2022-12-29T08:48:20;4.90;;;2.47;;
19547;SDS011;9919;58.014;11.826;2022-12-29T08:50:23;8.88;;;3.42;;
19547;SDS011;9919;58.014;11.826;2022-12-29T08:52:25;7.38;;;2.55;;
19547;SDS011;9919;58.014;11.826;2022-12-29T08:54:26;6.93;;;3.17;;
19547;SDS011;9919;58.014;11.826;2022-12-29T08:56:27;6.88;;;2.90;;
19547;SDS011;9919;58.014;11.826;2022-12-29T08:58:29;5.28;;;2.50;;
19547;SDS011;9919;58.014;11.826;2022-12-29T09:00:30;4.85;;;2.75;;
19547;SDS011;9919;58.014;11.826;2022-12-29T09:02:32;4.75;;;2.55;;
19547;SDS011;9919;58.014;11.826;2022-12-29T09:04:33;7.03;;;2.35;;
19547;SDS011;9919;58.014;11.826;2022-12-29T09:06:34;5.15;;;2.38;;
19547;SDS011;9919;58.014;11.826;2022-12-29T09:08:36;5.32;;;2.25;;
19547;SDS011;9919;58.014;11.826;2022-12-29T09:10:37;3.95;;;1.92;;
19547;SDS011;9919;58.014;11.826;2022-12-29T09:12:38;5.72;;;2.30;;
19547;SDS011;9919;58.014;11.826;2022-12-29T09:14:40;5.20;;;2.15;;
19547;SDS011;9919;58.014;11.826;2022-12-29T09:16:43;3.33;;;2.05;;
19547;SDS011;9919;58.014;11.826;2022-12-29T09:19:03;3.85;;;1.88;;
19547;SDS011;9919;58.014;11.826;2022-12-29T09:21:05;5.43;;;2.15;;
19547;SDS011;9919;58.014;11.826;2022-12-29T09:23:07;4.10;;;1.90;;
19547;SDS011;9919;58.014;11.826;2022-12-29T09:25:10;4.40;;;2.28;;
19547;SDS011;9919;58.014;11.826;2022-12-29T09:27:11;3.50;;;2.08;;
19547;SDS011;9919;58.014;11.826;2022-12-29T09:29:13;5.30;;;1.80;;
19547;SDS011;9919;58.014;11.826;2022-12-29T09:31:15;2.30;;;1.40;;
19547;SDS011;9919;58.014;11.826;2022-12-29T09:33:18;2.35;;;1.33;;
19547;SDS011;9919;58.014;11.826;2022-12-29T09:35:20;3.42;;;1.40;;
19547;SDS011;9919;58.014;11.826;2022-12-29T09:37:21;5.50;;;1.58;;
19547;SDS011;9919;58.014;11.826;2022-12-29T09:39:22;2.58;;;1.70;;
19547;SDS011;9919;58.014;11.826;2022-12-29T09:41:29;3.08;;;2.00;;
19547;SDS011;9919;58.014;11.826;2022-12-29T09:43:54;6.95;;;2.25;;
19547;SDS011;9919;58.014;11.826;2022-12-29T09:48:28;3.35;;;1.27;;
19547;SDS011;9919;58.014;11.826;2022-12-29T09:50:35;3.08;;;1.45;;
19547;SDS011;9919;58.014;11.826;2022-12-29T09:52:40;3.80;;;1.30;;
19547;SDS011;9919;58.014;11.826;2022-12-29T09:54:57;5.03;;;1.80;;
19547;SDS011;9919;58.014;11.826;2022-12-29T09:57:04;1.83;;;1.23;;
19547;SDS011;9919;58.014;11.826;2022-12-29T09:59:18;3.03;;;1.42;;
19547;SDS011;9919;58.014;11.826;2022-12-29T10:03:39;1.95;;;1.45;;
19547;SDS011;9919;58.014;11.826;2022-12-29T10:08:03;1.92;;;1.10;;
19547;SDS011;9919;58.014;11.826;2022-12-29T10:10:16;1.35;;;1.25;;
19547;SDS011;9919;58.014;11.826;2022-12-29T10:22:07;2.22;;;1.40;;
19547;SDS011;9919;58.014;11.826;2022-12-29T10:24:04;2.35;;;1.25;;
19547;SDS011;9919;58.014;11.826;2022-12-29T10:26:12;1.48;;;1.35;;
19547;SDS011;9919;58.014;11.826;2022-12-29T10:28:20;3.03;;;1.73;;
19547;SDS011;9919;58.014;11.826;2022-12-29T10:30:23;1.08;;;0.93;;
19547;SDS011;9919;58.014;11.826;2022-12-29T10:34:37;2.78;;;1.45;;
19547;SDS011;9919;58.014;11.826;2022-12-29T10:36:44;3.58;;;0.98;;
19547;SDS011;9919;58.014;11.826;2022-12-29T10:39:02;6.10;;;1.25;;
19547;SDS011;9919;58.014;11.826;2022-12-29T10:41:13;3.83;;;1.30;;
19547;SDS011;9919;58.014;11.826;2022-12-29T10:43:23;1.85;;;1.08;;
19547;SDS011;9919;58.014;11.826;2022-12-29T10:45:33;1.25;;;1.13;;
19547;SDS011;9919;58.014;11.826;2022-12-29T10:47:38;1.80;;;1.20;;
19547;SDS011;9919;58.014;11.826;2022-12-29T10:50:03;1.70;;;1.02;;
19547;SDS011;9919;58.014;11.826;2022-12-29T10:52:05;4.45;;;1.05;;
19547;SDS011;9919;58.014;11.826;2022-12-29T10:54:11;0.60;;;0.60;;
19547;SDS011;9919;58.014;11.826;2022-12-29T10:58:29;1.25;;;0.75;;
19547;SDS011;9919;58.014;11.826;2022-12-29T11:00:32;2.03;;;1.20;;
19547;SDS011;9919;58.014;11.826;2022-12-29T11:07:12;0.80;;;0.80;;
19547;SDS011;9919;58.014;11.826;2022-12-29T11:09:16;1.42;;;1.10;;
19547;SDS011;9919;58.014;11.826;2022-12-29T11:11:25;3.00;;;1.13;;
19547;SDS011;9919;58.014;11.826;2022-12-29T11:13:30;4.57;;;1.20;;
19547;SDS011;9919;58.014;11.826;2022-12-29T11:15:40;5.45;;;1.55;;
19547;SDS011;9919;58.014;11.826;2022-12-29T11:17:50;2.92;;;1.35;;
19547;SDS011;9919;58.014;11.826;2022-12-29T11:19:59;1.38;;;1.25;;
19547;SDS011;9919;58.014;11.826;2022-12-29T11:24:24;3.90;;;0.90;;
19547;SDS011;9919;58.014;11.826;2022-12-29T11:26:28;2.25;;;1.10;;
19547;SDS011;9919;58.014;11.826;2022-12-29T11:28:30;4.18;;;0.90;;
19547;SDS011;9919;58.014;11.826;2022-12-29T11:30:33;1.30;;;0.90;;
19547;SDS011;9919;58.014;11.826;2022-12-29T11:32:34;0.55;;;0.55;;
19547;SDS011;9919;58.014;11.826;2022-12-29T11:34:35;1.73;;;0.85;;
19547;SDS011;9919;58.014;11.826;2022-12-29T11:36:37;1.58;;;0.95;;
19547;SDS011;9919;58.014;11.826;2022-12-29T11:38:40;1.08;;;0.85;;
19547;SDS011;9919;58.014;11.826;2022-12-29T11:40:43;0.93;;;0.80;;
19547;SDS011;9919;58.014;11.826;2022-12-29T11:42:48;0.80;;;0.80;;
19547;SDS011;9919;58.014;11.826;2022-12-29T11:44:59;1.17;;;0.95;;
19547;SDS011;9919;58.014;11.826;2022-12-29T11:47:21;1.38;;;0.85;;
19547;SDS011;9919;58.014;11.826;2022-12-29T11:49:31;1.08;;;0.98;;
19547;SDS011;9919;58.014;11.826;2022-12-29T11:51:42;1.05;;;0.40;;
19547;SDS011;9919;58.014;11.826;2022-12-29T11:53:46;0.75;;;0.75;;
19547;SDS011;9919;58.014;11.826;2022-12-29T11:55:54;2.28;;;0.80;;
19547;SDS011;9919;58.014;11.826;2022-12-29T11:57:58;0.90;;;0.90;;
19547;SDS011;9919;58.014;11.826;2022-12-29T12:00:03;1.25;;;0.90;;
19547;SDS011;9919;58.014;11.826;2022-12-29T12:04:36;1.90;;;1.00;;
19547;SDS011;9919;58.014;11.826;2022-12-29T12:06:41;0.88;;;0.88;;
19547;SDS011;9919;58.014;11.826;2022-12-29T12:11:14;0.88;;;0.80;;
19547;SDS011;9919;58.014;11.826;2022-12-29T12:13:33;0.60;;;0.57;;
19547;SDS011;9919;58.014;11.826;2022-12-29T12:15:42;2.92;;;1.05;;
19547;SDS011;9919;58.014;11.826;2022-12-29T12:20:02;0.98;;;0.52;;
19547;SDS011;9919;58.014;11.826;2022-12-29T12:24:39;0.60;;;0.60;;
19547;SDS011;9919;58.014;11.826;2022-12-29T12:27:08;1.23;;;0.63;;
19547;SDS011;9919;58.014;11.826;2022-12-29T12:29:26;1.88;;;1.20;;
19547;SDS011;9919;58.014;11.826;2022-12-29T12:31:39;1.35;;;1.08;;
19547;SDS011;9919;58.014;11.826;2022-12-29T12:33:50;1.40;;;0.77;;
19547;SDS011;9919;58.014;11.826;2022-12-29T12:49:15;1.45;;;0.90;;
19547;SDS011;9919;58.014;11.826;2022-12-29T12:58:18;0.80;;;0.50;;
19547;SDS011;9919;58.014;11.826;2022-12-29T13:17:11;1.15;;;0.73;;
19547;SDS011;9919;58.014;11.826;2022-12-29T13:21:54;1.60;;;0.63;;
19547;SDS011;9919;58.014;11.826;2022-12-29T13:26:24;0.93;;;0.68;;
19547;SDS011;9919;58.014;11.826;2022-12-29T13:37:35;1.27;;;0.75;;
19547;SDS011;9919;58.014;11.826;2022-12-29T13:40:02;0.60;;;0.55;;
19547;SDS011;9919;58.014;11.826;2022-12-29T13:42:10;1.25;;;0.50;;
19547;SDS011;9919;58.014;11.826;2022-12-29T13:44:15;0.70;;;0.55;;
19547;SDS011;9919;58.014;11.826;2022-12-29T13:46:31;1.45;;;0.68;;
19547;SDS011;9919;58.014;11.826;2022-12-29T13:48:42;0.43;;;0.43;;
19547;SDS011;9919;58.014;11.826;2022-12-29T13:50:57;0.90;;;0.60;;
19547;SDS011;9919;58.014;11.826;2022-12-29T13:57:41;1.55;;;0.60;;
19547;SDS011;9919;58.014;11.826;2022-12-29T14:00:49;0.73;;;0.57;;
19547;SDS011;9919;58.014;11.826;2022-12-29T14:07:17;0.60;;;0.60;;
19547;SDS011;9919;58.014;11.826;2022-12-29T14:10:01;0.93;;;0.52;;
19547;SDS011;9919;58.014;11.826;2022-12-29T14:11:47;1.08;;;0.65;;
19547;SDS011;9919;58.014;11.826;2022-12-29T14:13:49;0.60;;;0.50;;
19547;SDS011;9919;58.014;11.826;2022-12-29T14:15:55;0.52;;;0.52;;
19547;SDS011;9919;58.014;11.826;2022-12-29T14:18:05;1.35;;;0.60;;
19547;SDS011;9919;58.014;11.826;2022-12-29T14:20:19;0.40;;;0.40;;
19547;SDS011;9919;58.014;11.826;2022-12-29T14:22:23;0.50;;;0.50;;
19547;SDS011;9919;58.014;11.826;2022-12-29T14:26:33;0.30;;;0.30;;
19547;SDS011;9919;58.014;11.826;2022-12-29T14:30:51;0.70;;;0.70;;
19547;SDS011;9919;58.014;11.826;2022-12-29T14:33:01;2.30;;;0.77;;
19547;SDS011;9919;58.014;11.826;2022-12-29T14:37:40;4.00;;;0.73;;
19547;SDS011;9919;58.014;11.826;2022-12-29T14:39:42;1.25;;;0.60;;
19547;SDS011;9919;58.014;11.826;2022-12-29T14:41:45;0.32;;;0.32;;
19547;SDS011;9919;58.014;11.826;2022-12-29T14:43:56;0.80;;;0.50;;
19547;SDS011;9919;58.014;11.826;2022-12-29T14:46:00;1.13;;;0.60;;
19547;SDS011;9919;58.014;11.826;2022-12-29T14:48:02;2.45;;;0.88;;
19547;SDS011;9919;58.014;11.826;2022-12-29T14:50:40;1.42;;;0.57;;
19547;SDS011;9919;58.014;11.826;2022-12-29T14:52:53;1.25;;;0.90;;
19547;SDS011;9919;58.014;11.826;2022-12-29T14:57:39;1.20;;;0.60;;
19547;SDS011;9919;58.014;11.826;2022-12-29T14:59:41;0.93;;;0.57;;
19547;SDS011;9919;58.014;11.826;2022-12-29T15:01:47;0.35;;;0.35;;
19547;SDS011;9919;58.014;11.826;2022-12-29T15:03:59;0.40;;;0.40;;
19547;SDS011;9919;58.014;11.826;2022-12-29T15:06:15;0.70;;;0.70;;
19547;SDS011;9919;58.014;11.826;2022-12-29T15:08:23;1.85;;;0.50;;
19547;SDS011;9919;58.014;11.826;2022-12-29T15:10:32;0.65;;;0.55;;